createdAt,value
2022-08-17T00:00:00.326Z,17.37
2022-08-17T00:04:56.695Z,17.38
2022-08-17T00:09:53.109Z,17.36
2022-08-17T00:14:49.953Z,17.37
2022-08-17T00:19:46.601Z,17.49
2022-08-17T00:24:42.954Z,17.60
2022-08-17T00:29:39.328Z,17.65
2022-08-17T00:34:35.658Z,17.67
2022-08-17T00:39:32.055Z,17.64
2022-08-17T00:44:31.241Z,17.50
2022-08-17T00:49:27.766Z,17.48
2022-08-17T00:54:29.770Z,17.49
2022-08-17T00:59:33.026Z,17.43
2022-08-17T01:04:31.381Z,17.47
2022-08-17T01:09:27.921Z,17.50
2022-08-17T01:14:26.101Z,17.48
2022-08-17T01:19:26.632Z,17.40
2022-08-17T01:24:23.374Z,17.35
2022-08-17T01:29:21.617Z,17.28
2022-08-17T01:34:18.906Z,17.27
2022-08-17T01:39:34.138Z,17.27
2022-08-17T01:44:30.637Z,17.21
2022-08-17T01:49:27.033Z,17.07
2022-08-17T01:54:25.244Z,16.97
2022-08-17T01:59:21.766Z,16.94
2022-08-17T02:04:18.326Z,16.86
2022-08-17T02:09:16.784Z,16.74
2022-08-17T02:14:14.211Z,16.69
2022-08-17T02:19:15.537Z,16.59
2022-08-17T02:24:17.271Z,16.59
2022-08-17T02:29:15.129Z,16.70
2022-08-17T02:34:11.671Z,16.68
2022-08-17T02:39:10.477Z,16.60
2022-08-17T02:44:07.204Z,16.64
2022-08-17T02:49:04.956Z,16.70
2022-08-17T02:54:35.772Z,16.63
2022-08-17T02:59:17.522Z,16.60
2022-08-17T03:04:14.012Z,16.55
2022-08-17T03:09:10.339Z,16.51
2022-08-17T03:14:06.675Z,16.48
2022-08-17T03:19:03.064Z,16.39
2022-08-17T03:23:59.653Z,16.27
2022-08-17T03:28:55.970Z,16.24
2022-08-17T03:33:52.509Z,16.19
2022-08-17T03:38:48.838Z,16.19
2022-08-17T03:43:47.426Z,16.19
2022-08-17T03:49:02.362Z,16.29
2022-08-17T03:54:18.350Z,16.33
2022-08-17T03:59:21.171Z,16.24
2022-08-17T04:04:20.150Z,16.29
2022-08-17T04:09:24.050Z,16.32
2022-08-17T04:14:20.739Z,16.31
2022-08-17T04:19:17.170Z,16.39
2022-08-17T04:24:13.573Z,16.38
2022-08-17T04:29:10.012Z,16.42
2022-08-17T04:34:06.637Z,16.45
2022-08-17T04:39:03.698Z,16.49
2022-08-17T04:44:01.244Z,16.55
2022-08-17T04:48:57.903Z,16.68
2022-08-17T04:53:57.287Z,16.75
2022-08-17T04:58:57.624Z,16.78
2022-08-17T05:03:56.801Z,16.95
2022-08-17T05:08:54.163Z,17.15
2022-08-17T05:13:50.638Z,17.35
2022-08-17T05:18:47.612Z,17.61
2022-08-17T05:23:45.055Z,17.84
2022-08-17T05:28:47.938Z,18.12
2022-08-17T05:33:46.243Z,18.19
2022-08-17T05:38:42.887Z,18.36
2022-08-17T05:43:41.938Z,18.46
2022-08-17T05:48:41.406Z,18.66
2022-08-17T05:54:00.538Z,18.95
2022-08-17T05:59:23.820Z,19.32
2022-08-17T06:05:00.702Z,19.52
2022-08-17T06:10:02.998Z,19.73
2022-08-17T06:15:19.524Z,20.16
2022-08-17T06:20:16.254Z,20.63
2022-08-17T06:25:14.768Z,21.20
2022-08-17T06:30:20.211Z,21.70
2022-08-17T06:35:28.888Z,21.96
2022-08-17T06:40:39.833Z,22.16
2022-08-17T06:45:49.017Z,22.37
2022-08-17T06:50:53.609Z,22.90
2022-08-17T06:55:59.782Z,23.30
2022-08-17T07:00:59.097Z,23.74
2022-08-17T07:06:04.406Z,24.35
2022-08-17T07:11:06.891Z,24.76
2022-08-17T07:16:20.310Z,24.61
2022-08-17T07:21:26.760Z,24.73
2022-08-17T07:26:24.193Z,25.04
2022-08-17T07:31:20.924Z,25.38
2022-08-17T07:36:29.622Z,25.93
2022-08-17T07:41:27.648Z,26.39
2022-08-17T07:47:11.296Z,26.39
2022-08-17T07:52:50.692Z,26.16
2022-08-17T07:57:55.060Z,26.25
2022-08-17T08:03:03.624Z,26.71
2022-08-17T08:08:05.864Z,27.02
2022-08-17T08:13:20.608Z,26.99
2022-08-17T08:18:38.725Z,26.94
2022-08-17T08:23:57.368Z,26.95
2022-08-17T08:29:09.361Z,27.11
2022-08-17T08:34:55.867Z,27.33
2022-08-17T08:39:57.169Z,27.70
2022-08-17T08:45:06.704Z,28.10
2022-08-17T08:50:30.233Z,28.75
2022-08-17T08:55:52.163Z,29.24
2022-08-17T09:00:53.823Z,29.52
2022-08-17T09:06:38.583Z,29.59
2022-08-17T09:12:01.803Z,29.50
2022-08-17T09:17:14.429Z,29.71
2022-08-17T09:22:31.362Z,29.73
2022-08-17T09:27:34.994Z,29.72
2022-08-17T09:32:39.087Z,30.30
2022-08-17T09:37:51.214Z,30.55
2022-08-17T09:42:52.384Z,30.22
2022-08-17T09:48:24.938Z,30.22
2022-08-17T09:53:23.884Z,29.96
2022-08-17T09:58:33.436Z,29.78
2022-08-17T10:03:55.741Z,29.78
2022-08-17T10:09:08.159Z,29.88
2022-08-17T10:14:36.583Z,30.13
2022-08-17T10:19:39.560Z,30.29
2022-08-17T10:25:22.899Z,30.39
2022-08-17T10:30:28.284Z,30.48
2022-08-17T10:35:43.740Z,30.60
2022-08-17T10:40:52.058Z,30.80
2022-08-17T10:46:10.616Z,30.97
2022-08-17T10:51:48.020Z,30.96
2022-08-17T10:56:47.454Z,30.46
2022-08-17T11:02:01.230Z,29.84
2022-08-17T11:07:30.454Z,29.70
2022-08-17T11:12:37.584Z,29.66
2022-08-17T11:17:41.319Z,29.47
2022-08-17T11:23:06.088Z,29.42
2022-08-17T11:28:13.894Z,29.34
2022-08-17T11:33:32.968Z,29.26
2022-08-17T11:39:03.170Z,29.04
2022-08-17T11:44:25.238Z,28.83
2022-08-17T11:50:00.588Z,28.76
2022-08-17T11:55:17.703Z,28.91
2022-08-17T12:00:49.758Z,29.17
2022-08-17T12:05:46.178Z,29.51
2022-08-17T12:10:52.084Z,29.67
2022-08-17T12:15:52.679Z,29.66
2022-08-17T12:21:12.123Z,29.36
2022-08-17T12:26:20.766Z,29.04
2022-08-17T12:31:25.776Z,28.67
2022-08-17T12:36:24.764Z,28.45
2022-08-17T12:41:43.281Z,28.45
2022-08-17T12:47:00.380Z,28.52
2022-08-17T12:52:25.581Z,28.48
2022-08-17T12:57:54.631Z,28.35
2022-08-17T13:02:55.044Z,28.25
2022-08-17T13:07:53.300Z,28.17
2022-08-17T13:12:51.331Z,28.32
2022-08-17T13:17:56.888Z,27.20
2022-08-17T13:22:57.350Z,26.98
2022-08-17T13:27:55.107Z,27.15
2022-08-17T13:32:53.792Z,27.29
2022-08-17T13:38:08.802Z,27.31
2022-08-17T13:43:05.448Z,27.28
2022-08-17T13:48:16.919Z,27.58
2022-08-17T13:53:19.049Z,27.97
2022-08-17T13:58:21.336Z,28.40
2022-08-17T14:03:18.730Z,28.62
2022-08-17T14:08:17.235Z,28.48
2022-08-17T14:13:15.124Z,28.47
2022-08-17T14:18:11.542Z,28.43
2022-08-17T14:23:08.303Z,28.54
2022-08-17T14:28:06.956Z,28.91
2022-08-17T14:33:03.417Z,29.23
2022-08-17T14:38:00.370Z,29.31
2022-08-17T14:42:57.723Z,29.05
2022-08-17T14:47:54.089Z,28.66
2022-08-17T14:52:52.287Z,28.44
2022-08-17T14:57:48.593Z,28.39
2022-08-17T15:02:53.803Z,28.10
2022-08-17T15:07:50.562Z,28.62
2022-08-17T15:12:47.417Z,28.99
2022-08-17T15:17:45.881Z,29.70
2022-08-17T15:22:43.715Z,29.89
2022-08-17T15:27:40.383Z,29.62
2022-08-17T15:32:39.320Z,29.72
2022-08-17T15:37:36.355Z,29.94
2022-08-17T15:42:33.911Z,29.46
2022-08-17T15:47:30.277Z,28.90
2022-08-17T15:52:29.701Z,28.58
2022-08-17T15:57:27.341Z,29.03
2022-08-17T16:03:13.738Z,29.52
2022-08-17T16:07:45.038Z,29.27
2022-08-17T16:12:45.498Z,28.78
2022-08-17T16:17:42.212Z,28.77
2022-08-17T16:22:42.089Z,28.96
2022-08-17T16:27:38.513Z,29.23
2022-08-17T16:32:34.889Z,28.90
2022-08-17T16:37:31.199Z,28.57
2022-08-17T16:42:33.349Z,28.53
2022-08-17T16:47:30.276Z,29.44
2022-08-17T16:52:32.489Z,31.66
2022-08-17T16:57:29.988Z,32.93
2022-08-17T17:02:32.643Z,31.47
2022-08-17T17:07:42.909Z,29.71
2022-08-17T17:13:03.852Z,29.27
2022-08-17T17:18:07.323Z,28.70
2022-08-17T17:23:39.423Z,28.46
2022-08-17T17:28:56.046Z,30.20
2022-08-17T17:34:00.359Z,32.87
2022-08-17T17:39:04.951Z,31.81
2022-08-17T17:44:11.691Z,29.33
2022-08-17T17:49:11.256Z,28.16
2022-08-17T17:54:18.343Z,27.07
2022-08-17T17:59:43.779Z,26.19
2022-08-17T18:04:53.616Z,25.99
2022-08-17T18:10:19.626Z,25.41
2022-08-17T18:15:31.634Z,25.02
2022-08-17T18:20:36.449Z,24.68
2022-08-17T18:25:50.489Z,24.43
2022-08-17T18:31:07.827Z,24.12
2022-08-17T18:36:05.886Z,23.95
2022-08-17T18:41:19.283Z,23.82
2022-08-17T18:46:28.988Z,23.71
2022-08-17T18:51:42.618Z,23.63
2022-08-17T18:56:48.706Z,23.49
2022-08-17T19:01:59.900Z,23.41
2022-08-17T19:07:16.705Z,23.25
2022-08-17T19:12:27.295Z,23.10
2022-08-17T19:17:32.234Z,22.96
2022-08-17T19:22:43.848Z,22.87
2022-08-17T19:27:50.092Z,22.73
2022-08-17T19:32:46.777Z,22.58
2022-08-17T19:37:58.962Z,22.44
2022-08-17T19:43:01.628Z,22.37
2022-08-17T19:48:12.342Z,22.26
2022-08-17T19:53:41.966Z,22.12
2022-08-17T19:59:01.203Z,21.99
2022-08-17T20:04:12.854Z,21.93
2022-08-17T20:09:34.611Z,21.84
2022-08-17T20:14:39.618Z,21.74
2022-08-17T20:20:19.866Z,21.63
2022-08-17T20:25:30.106Z,21.47
2022-08-17T20:30:35.027Z,21.42
2022-08-17T20:35:37.615Z,21.31
2022-08-17T20:40:35.589Z,21.23
2022-08-17T20:45:51.512Z,21.07
2022-08-17T20:50:56.265Z,20.97
2022-08-17T20:55:55.495Z,20.87
2022-08-17T21:00:57.840Z,20.86
2022-08-17T21:06:12.568Z,20.68
2022-08-17T21:12:03.067Z,20.46
2022-08-17T21:17:07.858Z,20.36
2022-08-17T21:22:46.412Z,20.40
2022-08-17T21:28:10.664Z,20.40
2022-08-17T21:33:20.264Z,20.43
2022-08-17T21:38:20.563Z,20.52
2022-08-17T21:43:23.839Z,20.41
2022-08-17T21:48:23.960Z,20.31
2022-08-17T21:53:33.155Z,20.19
2022-08-17T21:58:40.249Z,20.31
2022-08-17T22:03:38.472Z,20.18
2022-08-17T22:08:34.997Z,19.99
2022-08-17T22:13:32.372Z,19.79
2022-08-17T22:18:28.950Z,19.64
2022-08-17T22:23:45.198Z,19.52
2022-08-17T22:28:52.768Z,19.56
2022-08-17T22:33:52.114Z,19.64
2022-08-17T22:38:50.066Z,19.47
2022-08-17T22:43:46.809Z,19.30
2022-08-17T22:48:59.267Z,18.94
2022-08-17T22:54:30.671Z,18.76
2022-08-17T22:59:50.226Z,18.79
2022-08-17T23:04:51.350Z,18.74
2022-08-17T23:09:47.706Z,18.73
2022-08-17T23:14:45.987Z,18.33
2022-08-17T23:19:42.546Z,18.27
2022-08-17T23:24:43.363Z,18.34
2022-08-17T23:29:42.049Z,18.37
2022-08-17T23:34:39.656Z,18.44
2022-08-17T23:39:36.129Z,18.43
2022-08-17T23:44:33.743Z,18.23
2022-08-17T23:49:31.987Z,18.15
2022-08-17T23:54:43.491Z,18.03
2022-08-17T23:59:39.997Z,17.91
